Time;durP1;ratioP1;P1;durP2;ratioP2;P2;SDS_P1;SDS_P2;PMS_P1;PMS_P2;Temp;Humidity;BMP_temperature;BMP_pressure;BME280_temperature;BME280_humidity;BME280_pressure;Samples;Min_cycle;Max_cycle;Signal;HPM_P1;HPM_P2
2021/10/02 00:02:31;;;;;;;7.97;3.72;;;;;;;14.40;88.61;101131.22;5102249;28;20039;-53
2021/10/02 00:35:38;;;;;;;7.07;3.20;;;;;;;14.40;89.13;101136.69;5115245;28;20043;-54
2021/10/02 00:38:14;;;;;;;11.95;4.03;;;;;;;14.39;89.22;101148.78;5103731;28;20038;-54
2021/10/02 00:46:15;;;;;;;5.78;3.28;;;;;;;14.38;88.94;101144.41;5115167;28;20120;-53
2021/10/02 00:48:42;;;;;;;7.82;3.90;;;;;;;14.36;89.61;101141.13;5113245;28;20106;-54
2021/10/02 00:51:12;;;;;;;5.63;2.92;;;;;;;14.37;89.59;101137.28;5113638;28;20039;-54
2021/10/02 00:53:40;;;;;;;6.88;3.75;;;;;;;14.36;89.83;101135.66;5113553;28;20046;-53
2021/10/02 00:56:07;;;;;;;8.27;3.60;;;;;;;14.37;89.60;101131.78;5114489;28;20073;-54
2021/10/02 00:58:36;;;;;;;8.30;3.60;;;;;;;14.36;89.58;101132.91;5108490;28;20044;-54
2021/10/02 01:01:05;;;;;;;10.13;3.92;;;;;;;14.35;89.88;101128.50;5105437;28;20569;-54
2021/10/02 01:04:07;;;;;;;7.18;3.47;;;;;;;14.33;89.74;101130.72;5112517;28;20089;-52
2021/10/02 01:06:59;;;;;;;8.75;3.95;;;;;;;14.35;89.45;101123.03;5094323;28;20055;-51
2021/10/02 01:09:51;;;;;;;7.90;3.53;;;;;;;14.33;89.58;101108.78;5106699;28;20063;-53
2021/10/02 01:12:24;;;;;;;8.35;3.80;;;;;;;14.32;89.79;101106.34;5111845;28;20609;-53
2021/10/02 01:15:07;;;;;;;7.30;3.63;;;;;;;14.32;89.69;101096.19;5114559;28;20074;-54
2021/10/02 01:17:42;;;;;;;8.88;3.20;;;;;;;14.32;89.56;101104.41;5110731;28;20027;-53
2021/10/02 01:20:28;;;;;;;6.60;3.63;;;;;;;14.33;89.39;101105.22;5111233;28;20027;-53
2021/10/02 01:23:18;;;;;;;8.82;3.97;;;;;;;14.32;89.30;101104.41;5112817;28;20071;-53
2021/10/02 01:25:46;;;;;;;7.57;3.75;;;;;;;14.31;89.35;101111.03;5112679;28;20035;-53
2021/10/02 01:28:19;;;;;;;6.65;3.15;;;;;;;14.30;89.21;101103.06;5114426;28;20093;-53
2021/10/02 01:30:56;;;;;;;8.32;3.45;;;;;;;14.27;89.40;101101.72;5112641;28;20052;-54
2021/10/02 01:33:38;;;;;;;9.05;3.97;;;;;;;14.26;89.42;101102.81;5111720;28;20048;-52
2021/10/02 01:36:45;;;;;;;9.25;3.55;;;;;;;14.22;89.46;101102.56;5112973;28;20482;-54
2021/10/02 01:47:50;;;;;;;7.40;3.67;;;;;;;14.19;89.53;101088.63;5113839;28;20089;-51
2021/10/02 01:50:27;;;;;;;8.80;3.90;;;;;;;14.19;89.57;101089.47;5094033;28;20040;-51
2021/10/02 01:52:58;;;;;;;7.18;3.60;;;;;;;14.19;89.48;101088.63;5107108;28;20075;-54
2021/10/02 01:55:28;;;;;;;6.78;3.30;;;;;;;14.17;89.62;101080.69;5100451;28;20505;-55
2021/10/02 01:58:07;;;;;;;5.78;3.25;;;;;;;14.18;89.46;101073.28;5112614;28;20043;-53
2021/10/02 02:00:47;;;;;;;8.55;3.83;;;;;;;14.18;89.47;101082.31;5112248;27;20040;-53
2021/10/02 02:03:19;;;;;;;5.30;3.38;;;;;;;14.18;89.37;101079.59;5113490;28;20047;-53
2021/10/02 02:05:47;;;;;;;8.75;3.70;;;;;;;14.17;89.46;101082.63;5090415;28;20052;-54
2021/10/02 02:08:19;;;;;;;8.60;3.75;;;;;;;14.15;89.57;101080.16;5106154;28;20097;-53
2021/10/02 02:10:47;;;;;;;9.90;3.78;;;;;;;14.16;89.54;101076.31;5099268;28;20072;-54
2021/10/02 02:13:16;;;;;;;8.20;3.67;;;;;;;14.17;89.54;101077.16;5106994;28;20044;-53
2021/10/02 02:15:44;;;;;;;9.18;3.90;;;;;;;14.17;89.50;101075.22;5113396;28;20126;-53
2021/10/02 02:18:14;;;;;;;9.70;4.13;;;;;;;14.17;89.63;101077.16;5112304;28;20040;-51
2021/10/02 02:20:58;;;;;;;7.03;3.90;;;;;;;14.16;89.58;101076.31;5113057;28;20086;-54
2021/10/02 02:23:26;;;;;;;7.32;3.53;;;;;;;14.18;89.76;101071.34;5108926;28;20036;-52
2021/10/02 02:26:04;;;;;;;7.05;3.60;;;;;;;14.18;89.55;101076.03;5107616;28;20044;-54
2021/10/02 02:28:34;;;;;;;8.27;4.03;;;;;;;14.18;89.68;101073.28;5109333;28;20403;-57
2021/10/02 02:31:03;;;;;;;6.88;3.85;;;;;;;14.18;89.85;101067.81;5112902;28;20101;-53
2021/10/02 02:33:32;;;;;;;9.00;3.80;;;;;;;14.18;89.81;101067.81;5101708;28;20052;-55
2021/10/02 02:36:00;;;;;;;10.13;4.03;;;;;;;14.17;90.06;101064.25;5107194;28;20402;-54
2021/10/02 02:38:28;;;;;;;9.15;4.03;;;;;;;14.18;90.04;101065.06;5107802;28;20067;-53
2021/10/02 02:40:56;;;;;;;8.90;4.28;;;;;;;14.18;90.14;101056.84;5112782;28;20050;-54
2021/10/02 02:43:31;;;;;;;8.20;3.70;;;;;;;14.19;90.25;101058.47;5111257;28;20039;-53
2021/10/02 02:46:24;;;;;;;6.20;3.80;;;;;;;14.18;90.11;101056.84;5099446;28;20587;-54
2021/10/02 02:49:09;;;;;;;7.22;3.88;;;;;;;14.18;90.29;101045.88;5110077;28;20043;-55
2021/10/02 02:52:26;;;;;;;8.70;3.92;;;;;;;14.17;90.07;101047.00;5112687;28;20040;-53
2021/10/02 02:55:10;;;;;;;8.50;4.28;;;;;;;14.17;90.52;101047.00;5041239;28;20098;-53
2021/10/02 02:57:51;;;;;;;9.35;4.47;;;;;;;14.18;90.36;101045.88;5032557;28;20059;-53
2021/10/02 03:00:20;;;;;;;9.63;4.25;;;;;;;14.20;90.47;101041.75;5033273;28;20068;-53
2021/10/02 03:02:52;;;;;;;9.60;4.40;;;;;;;14.21;90.24;101031.59;5029572;28;20061;-55
2021/10/02 03:05:23;;;;;;;8.07;4.13;;;;;;;14.20;90.26;101038.19;5039340;28;20106;-53
2021/10/02 03:08:05;;;;;;;8.23;3.90;;;;;;;14.20;90.40;101032.72;5032291;28;20056;-55
2021/10/02 03:10:34;;;;;;;7.38;3.97;;;;;;;14.21;90.39;101037.06;5046013;28;20061;-54
2021/10/02 03:13:05;;;;;;;8.38;4.32;;;;;;;14.22;90.30;101036.00;5049360;28;20196;-53
2021/10/02 03:15:34;;;;;;;6.70;3.95;;;;;;;14.21;90.24;101039.81;5032534;28;20072;-52
2021/10/02 03:18:02;;;;;;;7.40;3.72;;;;;;;14.19;90.50;101042.88;5029137;28;20045;-53
2021/10/02 03:20:30;;;;;;;9.75;4.10;;;;;;;14.19;90.72;101029.16;5046200;28;20071;-52
2021/10/02 03:22:58;;;;;;;7.85;4.32;;;;;;;14.20;90.67;101029.97;5031556;28;20056;-54
2021/10/02 03:25:29;;;;;;;11.05;4.20;;;;;;;14.21;90.85;101042.56;5029663;28;20425;-53
2021/10/02 03:27:59;;;;;;;7.95;4.15;;;;;;;14.21;90.76;101039.81;5037159;28;20057;-50
2021/10/02 03:30:29;;;;;;;8.77;4.25;;;;;;;14.21;90.62;101048.03;5109152;28;20036;-50
2021/10/02 03:32:57;;;;;;;8.13;3.80;;;;;;;14.20;90.57;101044.50;5111850;28;20116;-53
2021/10/02 03:35:25;;;;;;;9.25;4.00;;;;;;;14.18;90.59;101052.19;5109888;28;20439;-51
2021/10/02 03:37:53;;;;;;;8.27;3.72;;;;;;;14.17;90.53;101049.75;5108631;28;20063;-51
2021/10/02 03:40:21;;;;;;;7.20;3.97;;;;;;;14.16;90.90;101048.09;5110006;28;20113;-51
2021/10/02 03:42:54;;;;;;;8.65;3.75;;;;;;;14.14;90.81;101039.31;5112102;28;20090;-52
2021/10/02 03:45:28;;;;;;;11.10;3.95;;;;;;;14.14;90.97;101047.56;5111936;28;20039;-51
2021/10/02 03:47:56;;;;;;;9.90;3.80;;;;;;;14.14;90.98;101053.03;5102374;28;20063;-53
2021/10/02 03:50:24;;;;;;;8.35;3.78;;;;;;;14.13;91.01;101049.47;5102651;28;20071;-53
2021/10/02 03:52:51;;;;;;;8.82;4.10;;;;;;;14.15;90.78;101054.69;5112154;28;20043;-54
2021/10/02 03:55:19;;;;;;;9.15;4.10;;;;;;;14.14;90.42;101059.34;5111549;28;20078;-53
2021/10/02 03:57:47;;;;;;;9.23;4.30;;;;;;;14.13;90.56;101063.19;5110049;28;20046;-54
2021/10/02 04:00:16;;;;;;;10.20;4.25;;;;;;;14.14;90.29;101050.28;5109920;28;20089;-51
2021/10/02 04:02:44;;;;;;;8.82;4.18;;;;;;;14.13;90.24;101054.16;5111816;28;20040;-51
2021/10/02 04:05:13;;;;;;;7.57;3.70;;;;;;;14.12;89.97;101063.44;5111109;28;20070;-51
2021/10/02 04:07:43;;;;;;;7.55;3.85;;;;;;;14.11;90.18;101059.09;5097636;28;20031;-53
2021/10/02 04:10:11;;;;;;;6.30;3.50;;;;;;;14.11;89.90;101057.16;5109946;28;20149;-52
2021/10/02 04:12:49;;;;;;;8.23;3.53;;;;;;;14.11;89.94;101059.09;5090464;28;20044;-54
2021/10/02 04:15:17;;;;;;;9.38;4.10;;;;;;;14.11;89.98;101059.09;5103848;28;20493;-54
2021/10/02 04:17:45;;;;;;;7.47;4.03;;;;;;;14.12;90.04;101057.97;5107816;28;20059;-55
2021/10/02 04:20:12;;;;;;;8.57;4.32;;;;;;;14.13;89.83;101056.88;5111219;28;20032;-54
2021/10/02 04:22:40;;;;;;;6.65;3.78;;;;;;;14.13;90.07;101048.66;5109679;28;20055;-53
2021/10/02 04:25:08;;;;;;;7.50;3.65;;;;;;;14.13;89.92;101045.94;5111407;28;20040;-53
2021/10/02 04:27:36;;;;;;;8.80;3.63;;;;;;;14.13;89.82;101046.75;5111466;28;20047;-54
2021/10/02 04:30:04;;;;;;;6.97;3.60;;;;;;;14.15;89.93;101051.94;5108162;28;20092;-54
2021/10/02 04:32:31;;;;;;;7.93;3.63;;;;;;;14.14;89.64;101045.66;5105458;28;20063;-52
2021/10/02 04:34:59;;;;;;;7.32;3.38;;;;;;;14.14;89.44;101050.28;5110661;28;20123;-54
2021/10/02 04:37:27;;;;;;;9.20;3.88;;;;;;;14.15;89.21;101052.75;5106518;28;20050;-57
2021/10/02 04:39:54;;;;;;;7.57;4.25;;;;;;;14.14;89.27;101050.28;5106178;28;20044;-54
2021/10/02 04:42:22;;;;;;;7.70;3.90;;;;;;;14.12;89.11;101058.81;5109713;28;20059;-54
2021/10/02 04:44:50;;;;;;;7.55;3.78;;;;;;;14.12;89.03;101067.03;5111197;28;20040;-54
2021/10/02 04:47:17;;;;;;;9.32;4.65;;;;;;;14.11;89.34;101067.31;5114944;28;20105;-54
2021/10/02 04:49:46;;;;;;;9.85;4.35;;;;;;;14.10;89.13;101065.69;5114915;27;20517;-54
2021/10/02 04:52:14;;;;;;;8.65;4.80;;;;;;;14.10;88.77;101065.69;5113547;28;20073;-53
2021/10/02 04:54:42;;;;;;;9.50;5.18;;;;;;;14.06;89.06;101054.47;5109668;28;20104;-53
2021/10/02 04:57:10;;;;;;;9.40;5.40;;;;;;;14.05;89.38;101064.63;5114686;28;20047;-53
2021/10/02 04:59:37;;;;;;;10.15;4.90;;;;;;;14.04;89.38;101056.66;5114863;28;20141;-54
2021/10/02 05:02:05;;;;;;;12.23;5.70;;;;;;;13.99;89.63;101054.78;5114452;28;20130;-53
2021/10/02 05:04:33;;;;;;;11.88;5.85;;;;;;;13.94;89.64;101057.56;5105910;28;20118;-51
2021/10/02 05:07:00;;;;;;;12.18;5.88;;;;;;;13.93;90.05;101066.91;5108340;28;20039;-54
2021/10/02 05:09:28;;;;;;;11.75;6.43;;;;;;;13.90;90.05;101056.50;5114445;28;20039;-53
2021/10/02 05:11:56;;;;;;;11.70;6.47;;;;;;;13.88;89.82;101064.19;5114713;28;20043;-53
2021/10/02 05:14:25;;;;;;;10.77;5.93;;;;;;;13.87;89.87;101062.53;5104697;28;20047;-53
2021/10/02 05:16:53;;;;;;;12.15;6.03;;;;;;;13.91;89.63;101063.63;5114246;28;20486;-54
2021/10/02 05:19:21;;;;;;;11.75;5.57;;;;;;;13.91;89.72;101065.53;5114163;28;20444;-57
2021/10/02 05:21:48;;;;;;;11.52;4.45;;;;;;;13.94;89.57;101064.97;5114499;28;20046;-55
2021/10/02 05:24:16;;;;;;;13.90;6.53;;;;;;;13.93;89.56;101064.16;5109730;28;20032;-53
2021/10/02 05:26:44;;;;;;;12.20;5.93;;;;;;;13.93;89.41;101060.59;5111201;28;20048;-57
2021/10/02 05:29:12;;;;;;;12.32;5.55;;;;;;;13.92;89.35;101059.75;5114543;28;20078;-56
2021/10/02 05:31:39;;;;;;;10.23;5.07;;;;;;;13.92;89.81;101062.50;5114057;28;20122;-56
2021/10/02 05:34:07;;;;;;;10.70;5.53;;;;;;;13.92;89.65;101065.25;5113521;28;20405;-54
2021/10/02 05:36:35;;;;;;;10.68;5.38;;;;;;;13.94;89.25;101062.22;5108131;28;20051;-54
2021/10/02 05:39:03;;;;;;;8.73;4.43;;;;;;;13.93;89.41;101061.41;5106260;28;20184;-52
2021/10/02 05:41:31;;;;;;;8.55;4.78;;;;;;;13.91;89.59;101063.63;5113986;28;20066;-53
2021/10/02 05:43:58;;;;;;;10.70;5.25;;;;;;;13.88;89.50;101058.72;5113945;28;20550;-54
2021/10/02 05:46:26;;;;;;;8.38;4.70;;;;;;;13.85;89.44;101071.06;5099915;28;20070;-51
2021/10/02 05:48:54;;;;;;;8.90;4.05;;;;;;;13.84;89.47;101072.16;5113050;28;20097;-55
2021/10/02 05:51:24;;;;;;;10.63;5.50;;;;;;;13.83;89.35;101066.97;5113700;28;20402;-54
2021/10/02 05:53:52;;;;;;;12.05;5.45;;;;;;;13.83;89.61;101064.22;5113489;28;20043;-54
2021/10/02 05:56:20;;;;;;;10.48;4.65;;;;;;;13.82;89.74;101065.31;5111920;28;20036;-56
2021/10/02 05:58:47;;;;;;;12.20;5.35;;;;;;;13.82;89.99;101068.06;5098293;28;20052;-54
2021/10/02 06:01:15;;;;;;;10.52;5.20;;;;;;;13.83;89.47;101066.97;5113257;28;20105;-54
2021/10/02 06:03:43;;;;;;;11.10;5.68;;;;;;;13.83;89.61;101061.50;4405440;27;10022473;-57
2021/10/02 06:06:14;;;;;;;11.35;5.72;;;;;;;13.82;89.46;101055.19;5109919;28;20085;-55
2021/10/02 06:08:42;;;;;;;10.77;6.38;;;;;;;13.82;89.25;101066.13;5109864;27;20039;-53
2021/10/02 06:11:10;;;;;;;11.95;6.13;;;;;;;13.82;89.24;101057.91;5111124;28;20073;-53
2021/10/02 06:13:38;;;;;;;17.58;5.97;;;;;;;13.81;89.23;101059.03;5110805;28;20673;-51
2021/10/02 06:16:06;;;;;;;8.70;5.07;;;;;;;13.81;89.61;101053.56;5095214;28;20422;-53
2021/10/02 06:18:34;;;;;;;13.88;5.25;;;;;;;13.82;89.16;101065.31;5109627;28;20039;-54
2021/10/02 06:21:02;;;;;;;13.40;5.60;;;;;;;13.81;88.99;101052.75;5108578;28;20063;-53
2021/10/02 06:23:30;;;;;;;13.85;5.40;;;;;;;13.82;88.98;101065.31;5113031;28;20047;-54
2021/10/02 06:25:57;;;;;;;11.50;5.22;;;;;;;13.82;89.04;101073.53;5110993;28;20051;-52
2021/10/02 06:28:25;;;;;;;10.82;5.20;;;;;;;13.83;89.12;101072.44;5102335;28;20410;-52
2021/10/02 06:30:53;;;;;;;11.80;5.15;;;;;;;13.83;88.10;101069.72;5110867;28;20043;-53
2021/10/02 06:33:20;;;;;;;16.65;6.65;;;;;;;13.82;88.88;101082.56;5113173;28;20036;-56
2021/10/02 06:35:51;;;;;;;11.65;5.15;;;;;;;13.80;88.68;101076.53;5104363;28;20063;-53
2021/10/02 06:38:19;;;;;;;12.10;5.45;;;;;;;13.81;88.69;101077.38;5108965;28;20055;-53
2021/10/02 06:40:47;;;;;;;10.48;5.13;;;;;;;13.82;88.57;101076.28;5111356;28;20394;-53
2021/10/02 06:43:15;;;;;;;14.10;5.68;;;;;;;13.83;88.55;101080.66;5112862;28;20047;-54
2021/10/02 06:45:43;;;;;;;11.23;4.95;;;;;;;13.84;88.75;101079.56;5112186;28;20035;-51
2021/10/02 06:48:11;;;;;;;11.70;5.00;;;;;;;13.87;88.58;101078.97;5106133;28;20052;-51
2021/10/02 06:50:58;;;;;;;10.23;4.30;;;;;;;13.92;88.28;101076.19;5102617;28;20048;-50
2021/10/02 06:53:26;;;;;;;16.20;5.53;;;;;;;13.92;88.31;101081.69;5107043;28;20043;-50
2021/10/02 06:55:54;;;;;;;12.32;4.82;;;;;;;13.94;88.32;101079.47;5112417;28;20047;-47
2021/10/02 06:58:21;;;;;;;10.77;5.30;;;;;;;13.94;88.25;101068.53;5110855;28;20043;-49
2021/10/02 07:00:49;;;;;;;12.10;5.05;;;;;;;13.95;87.98;101066.59;5112047;28;20114;-49
2021/10/02 07:03:17;;;;;;;13.38;4.75;;;;;;;13.95;88.07;101063.84;5112480;28;20402;-50
2021/10/02 07:05:44;;;;;;;10.55;5.15;;;;;;;13.95;87.91;101058.38;5112323;28;20067;-50
2021/10/02 07:08:13;;;;;;;12.75;4.93;;;;;;;13.95;87.96;101053.75;5102956;28;20036;-49
2021/10/02 07:10:41;;;;;;;11.85;5.70;;;;;;;13.93;87.94;101044.97;5108370;28;20052;-49
2021/10/02 07:13:09;;;;;;;12.77;5.82;;;;;;;13.95;87.92;101051.00;5111722;28;20046;-48
2021/10/02 07:15:36;;;;;;;11.15;5.88;;;;;;;13.95;88.02;101042.78;5112117;28;20472;-50
2021/10/02 07:18:04;;;;;;;12.48;5.63;;;;;;;13.97;88.09;101037.81;5110485;28;20474;-50
2021/10/02 07:20:32;;;;;;;12.70;7.18;;;;;;;13.99;88.38;101043.81;5112045;28;20048;-49
2021/10/02 07:22:59;;;;;;;12.02;5.32;;;;;;;14.01;88.36;101038.06;5111978;28;20110;-51
2021/10/02 07:25:28;;;;;;;10.07;5.25;;;;;;;14.03;88.05;101035.88;5109859;28;20708;-52
2021/10/02 07:27:56;;;;;;;12.18;5.70;;;;;;;14.01;88.05;101025.19;5102198;28;20521;-52
2021/10/02 07:30:25;;;;;;;10.32;5.28;;;;;;;14.02;87.96;101024.09;5102612;28;20508;-51
2021/10/02 07:32:52;;;;;;;13.60;5.88;;;;;;;14.02;87.78;101023.25;5111819;28;20039;-49
2021/10/02 07:35:20;;;;;;;10.48;5.90;;;;;;;14.01;87.74;101025.19;5109995;28;20062;-51
2021/10/02 07:37:49;;;;;;;13.88;6.07;;;;;;;14.02;87.72;101015.88;5105670;28;20042;-47
2021/10/02 07:40:18;;;;;;;10.35;5.57;;;;;;;14.02;87.71;101021.34;5111387;28;20036;-52
2021/10/02 07:42:53;;;;;;;12.35;5.40;;;;;;;14.04;87.46;101021.06;5111546;28;20042;-46
2021/10/02 07:45:22;;;;;;;10.82;5.70;;;;;;;14.06;87.40;101016.09;5111701;28;20424;-49
2021/10/02 07:47:51;;;;;;;15.20;5.75;;;;;;;14.06;87.52;101010.63;5111751;28;20461;-49
2021/10/02 07:50:19;;;;;;;12.30;5.53;;;;;;;14.07;87.56;101013.09;5109988;28;20047;-46
2021/10/02 07:52:47;;;;;;;9.63;5.18;;;;;;;14.09;87.79;101011.97;5111934;28;20506;-46
2021/10/02 07:55:15;;;;;;;11.40;5.72;;;;;;;14.09;87.47;101011.97;5111562;28;20043;-50
2021/10/02 07:57:45;;;;;;;11.23;6.13;;;;;;;14.09;87.54;101004.56;5111554;28;20032;-48
2021/10/02 08:00:18;;;;;;;12.43;6.07;;;;;;;14.10;87.33;101000.75;5109860;28;20046;-48
2021/10/02 08:02:55;;;;;;;14.15;5.95;;;;;;;14.12;86.91;100998.53;5111938;28;20036;-50
2021/10/02 08:05:24;;;;;;;10.10;5.70;;;;;;;14.13;87.15;100989.19;5111317;28;20052;-50
2021/10/02 08:07:52;;;;;;;12.02;5.30;;;;;;;14.19;86.74;100989.97;5111425;28;20035;-48
2021/10/02 08:10:25;;;;;;;11.02;5.18;;;;;;;14.21;86.98;100995.97;5109553;28;20839;-50
2021/10/02 08:12:52;;;;;;;11.65;5.88;;;;;;;14.24;86.76;100993.50;5111473;28;20043;-45
2021/10/02 08:15:21;;;;;;;13.88;6.35;;;;;;;14.26;86.90;100985.81;5111991;28;20040;-48
2021/10/02 08:17:49;;;;;;;17.60;6.85;;;;;;;14.25;87.22;100992.38;5110154;28;20501;-48
2021/10/02 08:20:19;;;;;;;13.23;6.30;;;;;;;14.29;86.81;100987.16;5111376;28;20062;-51
2021/10/02 08:22:55;;;;;;;12.43;6.50;;;;;;;14.28;86.97;100988.22;5115452;28;20436;-49
2021/10/02 08:25:22;;;;;;;15.27;6.57;;;;;;;14.31;87.01;100992.31;5114102;28;20551;-49
2021/10/02 08:27:53;;;;;;;11.73;5.60;;;;;;;14.28;86.89;100980.00;5113782;28;20039;-51
2021/10/02 08:30:21;;;;;;;12.93;6.28;;;;;;;14.28;86.99;100983.56;5095462;28;20046;-50
2021/10/02 08:32:49;;;;;;;14.57;6.32;;;;;;;14.26;87.21;100982.22;5115409;28;20430;-52
2021/10/02 08:35:16;;;;;;;13.02;4.53;;;;;;;14.27;87.04;100975.66;5115012;28;20040;-51
2021/10/02 08:37:44;;;;;;;12.02;5.05;;;;;;;14.29;86.90;100984.41;5115529;28;20086;-50
2021/10/02 08:40:15;;;;;;;11.40;4.70;;;;;;;14.32;86.74;100981.06;5114863;28;20040;-49
2021/10/02 08:42:45;;;;;;;11.25;4.07;;;;;;;14.35;86.76;100975.00;5113575;28;20035;-50
2021/10/02 08:45:14;;;;;;;13.57;5.10;;;;;;;14.39;86.40;100964.28;5114980;28;20346;-49
2021/10/02 08:47:45;;;;;;;14.02;4.93;;;;;;;14.41;86.47;100953.84;5115017;28;20044;-51
2021/10/02 08:50:17;;;;;;;12.35;4.45;;;;;;;14.40;86.93;100944.78;5115070;28;20051;-49
2021/10/02 08:52:46;;;;;;;12.40;4.55;;;;;;;14.44;87.01;100951.34;5113191;28;20032;-49
2021/10/02 08:55:15;;;;;;;11.45;4.40;;;;;;;14.47;87.02;100944.47;5112931;28;20505;-52
2021/10/02 08:57:44;;;;;;;10.82;4.40;;;;;;;14.49;87.17;100934.81;5114554;28;20054;-50
2021/10/02 09:00:16;;;;;;;13.02;4.68;;;;;;;14.53;87.04;100936.97;5114352;28;20066;-49
2021/10/02 09:02:45;;;;;;;13.10;4.53;;;;;;;14.54;87.42;100938.66;5106274;28;20429;-49
2021/10/02 09:05:13;;;;;;;13.20;4.65;;;;;;;14.52;87.84;100929.88;5107735;28;20039;-49
2021/10/02 09:07:44;;;;;;;10.00;4.15;;;;;;;14.51;87.66;100928.25;5114368;28;20027;-49
2021/10/02 09:10:12;;;;;;;10.10;4.15;;;;;;;14.55;87.26;100934.78;5114143;28;20113;-50
2021/10/02 09:12:41;;;;;;;11.02;4.10;;;;;;;14.56;87.53;100931.78;5112762;28;20050;-49
2021/10/02 09:15:09;;;;;;;10.50;4.13;;;;;;;14.58;87.47;100923.28;5114781;28;20059;-49
2021/10/02 09:17:37;;;;;;;10.52;3.47;;;;;;;14.59;87.04;100931.19;5114214;28;20046;-49
2021/10/02 09:20:06;;;;;;;10.50;4.20;;;;;;;14.62;86.95;100929.78;5114354;28;20032;-46
2021/10/02 09:22:34;;;;;;;7.85;3.40;;;;;;;14.64;86.38;100917.41;5112418;28;20042;-46
2021/10/02 09:25:05;;;;;;;9.98;3.60;;;;;;;14.63;86.44;100928.69;5113594;28;20036;-48
2021/10/02 09:27:35;;;;;;;9.27;3.90;;;;;;;14.64;86.27;100922.88;5112582;28;20051;-48
2021/10/02 09:30:14;;;;;;;9.85;3.70;;;;;;;14.67;86.13;100929.72;5114468;28;20038;-49
2021/10/02 09:32:45;;;;;;;10.43;3.90;;;;;;;14.69;86.26;100916.53;5111099;28;20040;-50
2021/10/02 09:35:19;;;;;;;9.95;3.60;;;;;;;14.70;86.11;100909.94;5113815;28;20501;-51
2021/10/02 09:37:51;;;;;;;7.18;3.38;;;;;;;14.71;86.13;100903.34;5114120;28;20040;-51
2021/10/02 09:40:22;;;;;;;9.73;3.88;;;;;;;14.71;86.07;100903.34;5113530;28;20063;-52
2021/10/02 09:42:58;;;;;;;7.65;3.30;;;;;;;14.72;85.58;100887.69;5112586;28;20047;-50
2021/10/02 09:45:27;;;;;;;;;;;;;;;14.74;85.68;100883.53;5114475;28;20040;-49
2021/10/02 09:47:57;;;;;;;8.35;3.30;;;;;;;14.75;85.41;100879.72;5114056;28;20294;-53
2021/10/02 09:50:28;;;;;;;6.53;3.17;;;;;;;14.80;85.40;100881.56;5108465;28;20044;-51
2021/10/02 09:53:13;;;;;;;10.35;3.40;;;;;;;14.80;85.39;100873.34;5111463;28;20410;-51
2021/10/02 09:55:46;;;;;;;9.15;3.58;;;;;;;14.80;85.24;100882.38;5113277;28;20047;-48
2021/10/02 09:58:35;;;;;;;8.02;3.90;;;;;;;14.82;85.01;100880.16;5113228;28;20044;-52
2021/10/02 10:01:05;;;;;;;11.15;3.13;;;;;;;14.83;83.76;100884.53;5111787;28;20042;-50
2021/10/02 10:03:47;;;;;;;7.65;3.45;;;;;;;14.86;84.43;100877.63;5111844;28;20028;-50
2021/10/02 10:06:28;;;;;;;9.77;3.38;;;;;;;14.90;84.51;100871.25;5101139;28;20036;-50
2021/10/02 10:09:08;;;;;;;9.98;3.75;;;;;;;14.99;84.74;100873.34;5111333;28;20043;-50
2021/10/02 10:11:50;;;;;;;10.77;3.95;;;;;;;15.10;84.31;100869.34;5113039;28;20410;-53
2021/10/02 10:14:19;;;;;;;19.40;6.18;;;;;;;15.19;83.91;100867.56;5110445;28;20039;-51
2021/10/02 10:16:46;;;;;;;9.32;3.92;;;;;;;15.21;82.97;100865.34;5112006;28;20056;-52
2021/10/02 10:19:26;;;;;;;13.50;4.88;;;;;;;15.22;82.37;100857.91;5113065;28;20040;-49
2021/10/02 10:22:07;;;;;;;6.75;3.20;;;;;;;15.14;82.30;100848.44;5113025;28;20042;-52
2021/10/02 10:24:37;;;;;;;6.68;2.80;;;;;;;15.08;82.91;100838.63;5106920;28;20032;-50
2021/10/02 10:27:05;;;;;;;6.40;3.40;;;;;;;15.05;82.63;100836.47;5104460;28;20391;-50
2021/10/02 10:29:36;;;;;;;8.05;3.42;;;;;;;15.03;82.74;100841.44;5112979;28;20039;-49
2021/10/02 10:32:07;;;;;;;5.15;2.55;;;;;;;15.05;82.75;100839.22;5113364;28;20046;-50
2021/10/02 10:34:38;;;;;;;4.65;2.60;;;;;;;15.08;82.60;100838.63;5111503;28;20035;-50
2021/10/02 10:37:08;;;;;;;13.48;4.35;;;;;;;15.16;82.53;100823.44;5103623;28;20220;-49
2021/10/02 10:39:36;;;;;;;14.18;4.70;;;;;;;15.21;82.27;100826.91;5111401;28;20046;-50
2021/10/02 10:42:05;;;;;;;7.38;2.92;;;;;;;15.21;81.60;100821.41;5106010;28;20057;-50
2021/10/02 10:44:32;;;;;;;9.20;3.38;;;;;;;15.23;81.97;100818.38;5112740;28;20048;-47
2021/10/02 10:47:00;;;;;;;14.52;4.32;;;;;;;15.32;82.64;100819.31;5099615;28;20172;-48
2021/10/02 10:49:28;;;;;;;8.95;3.58;;;;;;;15.37;81.44;100819.25;5110890;28;20109;-48
2021/10/02 10:52:01;;;;;;;10.80;3.72;;;;;;;15.42;81.71;100815.59;5112374;28;20047;-48
2021/10/02 10:54:29;;;;;;;7.85;3.08;;;;;;;15.47;81.24;100807.28;5109220;28;20047;-50
2021/10/02 10:56:56;;;;;;;5.47;2.80;;;;;;;15.44;80.99;100800.44;5112170;28;20524;-50
2021/10/02 10:59:24;;;;;;;6.20;3.03;;;;;;;15.40;81.39;100802.16;5112073;28;20708;-51
2021/10/02 11:01:52;;;;;;;4.85;3.03;;;;;;;15.38;81.57;100798.09;5108532;28;20071;-50
2021/10/02 11:04:33;;;;;;;6.65;3.20;;;;;;;15.37;81.48;100802.78;5096776;28;20253;-47
2021/10/02 11:07:04;;;;;;;5.33;2.60;;;;;;;15.36;81.50;100795.63;4495347;28;10000930;-49
2021/10/02 11:09:39;;;;;;;5.50;2.60;;;;;;;15.36;80.72;100794.81;5110163;28;20040;-49
2021/10/02 11:12:09;;;;;;;5.90;2.60;;;;;;;15.39;81.22;100796.97;5108290;28;20138;-48
2021/10/02 11:14:51;;;;;;;7.68;3.22;;;;;;;15.38;80.62;100793.41;5110390;28;20075;-50
2021/10/02 11:17:30;;;;;;;6.93;3.00;;;;;;;15.38;81.56;100785.16;5109934;28;20059;-51
2021/10/02 11:20:00;;;;;;;7.07;3.00;;;;;;;15.41;81.34;100786.50;5098680;28;20048;-47
2021/10/02 11:23:15;;;;;;;4.88;2.50;;;;;;;15.43;81.75;100767.78;5107135;28;20047;-48
2021/10/02 11:25:43;;;;;;;7.25;2.95;;;;;;;15.47;81.33;100774.31;5028520;28;20066;-49
2021/10/02 11:28:24;;;;;;;5.63;2.70;;;;;;;15.50;81.33;100752.53;5031281;28;20128;-52
2021/10/02 11:30:53;;;;;;;4.85;2.50;;;;;;;15.53;80.25;100745.63;5020962;28;20061;-52
2021/10/02 11:33:46;;;;;;;4.90;2.70;;;;;;;15.53;79.87;100729.97;5029142;28;20037;-51
2021/10/02 11:39:22;;;;;;;5.30;2.50;;;;;;;15.54;79.32;100711.56;5029166;28;20041;-49
2021/10/02 11:42:12;;;;;;;6.47;2.60;;;;;;;15.57;79.83;100699.97;5028996;28;20535;-48
2021/10/02 11:44:47;;;;;;;5.28;2.60;;;;;;;15.64;79.23;100708.63;5028778;28;20053;-46
2021/10/02 11:47:34;;;;;;;6.03;2.90;;;;;;;15.73;78.77;100698.59;5028541;28;20076;-49
2021/10/02 11:50:07;;;;;;;12.95;4.18;;;;;;;15.79;78.92;100685.56;5028669;28;20045;-47
2021/10/02 11:52:45;;;;;;;8.32;3.22;;;;;;;15.81;78.81;100679.75;5029187;28;20049;-46
2021/10/02 11:55:41;;;;;;;5.38;2.65;;;;;;;15.79;78.68;100687.50;5016671;28;20050;-50
2021/10/02 11:58:08;;;;;;;6.72;2.83;;;;;;;15.78;78.40;100672.94;5016639;28;20049;-50
2021/10/02 12:00:48;;;;;;;5.18;2.60;;;;;;;15.75;78.76;100666.13;5033039;28;20045;-49
2021/10/02 12:03:24;;;;;;;4.97;2.47;;;;;;;15.72;78.91;100655.75;5106690;28;20051;-48
2021/10/02 12:05:54;;;;;;;6.85;2.53;;;;;;;15.69;79.19;100653.59;5112875;28;20044;-48
2021/10/02 12:08:22;;;;;;;5.00;2.47;;;;;;;15.67;79.14;100652.25;5115596;28;20523;-48
2021/10/02 12:11:02;;;;;;;6.15;2.38;;;;;;;15.61;79.68;100643.34;5114302;28;20051;-49
2021/10/02 12:13:42;;;;;;;4.57;2.40;;;;;;;15.58;80.05;100638.44;5114117;28;20040;-46
2021/10/02 12:16:15;;;;;;;3.88;2.38;;;;;;;15.57;80.42;100647.81;5113109;28;20043;-48
2021/10/02 12:18:47;;;;;;;15.45;2.65;;;;;;;15.58;80.76;100632.94;5115675;28;20040;-47
2021/10/02 12:21:21;;;;;;;5.18;2.40;;;;;;;15.59;80.94;100620.84;5115674;28;20050;-47
2021/10/02 12:24:07;;;;;;;3.10;2.17;;;;;;;15.60;80.61;100611.47;5115478;28;20524;-49
2021/10/02 12:26:40;;;;;;;4.93;2.60;;;;;;;15.63;80.58;100612.78;5103458;28;20040;-50
2021/10/02 12:29:09;;;;;;;7.90;2.70;;;;;;;15.66;81.13;100618.50;5115522;28;20440;-50
2021/10/02 12:31:57;;;;;;;5.82;2.25;;;;;;;15.71;80.11;100615.66;5113938;28;20448;-54